createdAt,value
2017-10-16T00:00:07.859Z,14.40
2017-10-16T00:02:35.519Z,14.40
2017-10-16T00:05:03.125Z,14.40
2017-10-16T00:07:31.542Z,14.30
2017-10-16T00:09:59.151Z,14.30
2017-10-16T00:12:26.836Z,14.20
2017-10-16T00:14:55.404Z,14.10
2017-10-16T00:17:23.021Z,14.10
2017-10-16T00:19:50.616Z,14.10
2017-10-16T00:22:18.230Z,14.10
2017-10-16T00:24:45.989Z,14.00
2017-10-16T00:27:13.632Z,14.00
2017-10-16T00:29:41.978Z,13.90
2017-10-16T00:32:09.590Z,13.90
2017-10-16T00:34:37.203Z,13.90
2017-10-16T00:37:05.656Z,13.80
2017-10-16T00:39:34.230Z,13.80
2017-10-16T00:42:01.878Z,13.80
2017-10-16T00:44:29.485Z,13.80
2017-10-16T00:46:57.218Z,13.80
2017-10-16T00:49:24.872Z,13.80
2017-10-16T00:51:52.469Z,13.80
2017-10-16T00:54:20.093Z,13.80
2017-10-16T00:56:47.772Z,13.80
2017-10-16T00:59:15.451Z,13.80
2017-10-16T01:01:43.108Z,13.80
2017-10-16T01:04:10.767Z,13.80
2017-10-16T01:06:38.373Z,13.80
2017-10-16T01:09:06.002Z,13.80
2017-10-16T01:11:33.621Z,13.80
2017-10-16T01:14:01.248Z,13.80
2017-10-16T01:16:28.819Z,13.80
2017-10-16T01:18:57.229Z,13.80
2017-10-16T01:21:25.793Z,13.80
2017-10-16T01:23:53.433Z,13.80
2017-10-16T01:28:54.954Z,13.80
2017-10-16T01:31:22.594Z,13.80
2017-10-16T01:33:50.263Z,13.70
2017-10-16T01:36:17.869Z,13.70
2017-10-16T01:38:45.505Z,13.70
2017-10-16T01:41:13.108Z,13.60
2017-10-16T01:43:41.539Z,13.60
2017-10-16T01:46:09.417Z,13.50
2017-10-16T01:48:37.053Z,13.50
2017-10-16T01:51:04.716Z,13.50
2017-10-16T01:53:32.337Z,13.50
2017-10-16T01:56:01.408Z,13.30
2017-10-16T01:58:30.674Z,13.30
2017-10-16T02:00:58.366Z,13.30
2017-10-16T02:03:26.020Z,13.30
2017-10-16T02:05:53.650Z,13.30
2017-10-16T02:08:21.265Z,13.30
2017-10-16T02:10:49.649Z,13.20
2017-10-16T02:13:17.278Z,13.20
2017-10-16T02:15:44.902Z,13.30
2017-10-16T02:18:12.519Z,13.30
2017-10-16T02:20:40.129Z,13.20
2017-10-16T02:23:07.750Z,13.20
2017-10-16T02:25:35.358Z,13.20
2017-10-16T02:28:02.973Z,13.20
2017-10-16T02:30:30.599Z,13.20
2017-10-16T02:32:58.224Z,13.20
2017-10-16T02:35:26.632Z,13.20
2017-10-16T02:37:54.305Z,13.20
2017-10-16T02:40:21.938Z,13.20
2017-10-16T02:42:49.547Z,13.20
2017-10-16T02:45:17.166Z,13.20
2017-10-16T02:47:44.824Z,13.30
2017-10-16T02:50:12.737Z,13.20
2017-10-16T02:52:40.326Z,13.20
2017-10-16T02:55:08.009Z,13.20
2017-10-16T02:57:35.642Z,13.20
2017-10-16T03:00:03.283Z,13.20
2017-10-16T03:02:30.869Z,13.20
2017-10-16T03:04:58.518Z,13.20
2017-10-16T03:07:26.108Z,13.20
2017-10-16T03:09:53.697Z,13.20
2017-10-16T03:12:21.345Z,13.20
2017-10-16T03:14:49.776Z,13.20
2017-10-16T03:17:17.402Z,13.20
2017-10-16T03:19:45.034Z,13.30
2017-10-16T03:22:13.473Z,13.30
2017-10-16T03:24:41.072Z,13.30
2017-10-16T03:27:09.489Z,13.20
2017-10-16T03:29:37.143Z,13.20
2017-10-16T03:32:04.735Z,13.30
2017-10-16T03:34:32.366Z,13.30
2017-10-16T03:37:00.839Z,13.40
2017-10-16T03:39:28.745Z,13.40
2017-10-16T03:41:56.387Z,13.40
2017-10-16T03:44:24.103Z,13.30
2017-10-16T03:46:52.548Z,13.30
2017-10-16T03:49:20.166Z,13.30
2017-10-16T03:51:48.521Z,13.30
2017-10-16T03:54:16.967Z,13.40
2017-10-16T03:56:44.597Z,13.40
2017-10-16T03:59:12.285Z,13.40
2017-10-16T04:01:39.899Z,13.50
2017-10-16T04:04:07.482Z,13.50
2017-10-16T04:06:35.100Z,13.50
2017-10-16T04:09:02.706Z,13.50
2017-10-16T04:11:30.309Z,13.50
2017-10-16T04:13:58.001Z,13.50
2017-10-16T04:16:26.400Z,13.40
2017-10-16T04:18:54.036Z,13.40
2017-10-16T04:21:21.623Z,13.40
2017-10-16T04:23:49.283Z,13.40
2017-10-16T04:26:16.895Z,13.40
2017-10-16T04:28:44.514Z,13.40
2017-10-16T04:31:12.215Z,13.40
2017-10-16T04:33:39.857Z,13.40
2017-10-16T04:36:07.439Z,13.40
2017-10-16T04:38:35.047Z,13.40
2017-10-16T04:41:03.409Z,13.40
2017-10-16T04:43:31.819Z,13.40
2017-10-16T04:45:59.476Z,13.40
2017-10-16T04:48:27.132Z,13.40
2017-10-16T04:50:54.762Z,13.40
2017-10-16T04:53:22.413Z,13.30
2017-10-16T04:55:50.019Z,13.30
2017-10-16T04:58:17.631Z,13.20
2017-10-16T05:00:45.284Z,13.20
2017-10-16T05:03:12.918Z,13.20
2017-10-16T05:05:40.573Z,13.20
2017-10-16T05:08:08.466Z,13.20
2017-10-16T05:10:36.900Z,13.20
2017-10-16T05:13:04.516Z,13.10
2017-10-16T05:15:32.198Z,13.20
2017-10-16T05:17:59.907Z,13.20
2017-10-16T05:20:27.476Z,13.30
2017-10-16T05:22:55.139Z,13.20
2017-10-16T05:25:22.840Z,13.20
2017-10-16T05:27:51.663Z,13.20
2017-10-16T05:30:19.260Z,13.20
2017-10-16T05:32:46.934Z,13.20
2017-10-16T05:35:14.646Z,13.30
2017-10-16T05:37:42.310Z,13.20
2017-10-16T05:40:09.966Z,13.20
2017-10-16T05:42:38.447Z,13.30
2017-10-16T05:45:06.041Z,13.30
2017-10-16T05:47:33.697Z,13.30
2017-10-16T05:50:01.288Z,13.40
2017-10-16T05:52:28.974Z,13.40
2017-10-16T05:54:56.628Z,13.50
2017-10-16T05:57:25.069Z,13.50
2017-10-16T05:59:52.862Z,13.50
2017-10-16T06:02:20.496Z,13.60
2017-10-16T06:04:48.207Z,13.60
2017-10-16T06:07:16.749Z,13.60
2017-10-16T06:09:44.405Z,13.60
2017-10-16T06:12:12.080Z,13.60
2017-10-16T06:14:39.786Z,13.70
2017-10-16T06:17:07.478Z,13.70
2017-10-16T06:19:35.125Z,13.70
2017-10-16T06:22:02.813Z,13.70
2017-10-16T06:24:30.472Z,13.80
2017-10-16T06:26:58.150Z,13.70
2017-10-16T06:29:25.857Z,13.70
2017-10-16T06:31:53.597Z,13.70
2017-10-16T06:34:21.285Z,13.80
2017-10-16T06:36:49.694Z,13.90
2017-10-16T06:39:17.402Z,13.90
2017-10-16T06:41:45.040Z,13.90
2017-10-16T06:44:12.677Z,14.00
2017-10-16T06:46:40.357Z,14.10
2017-10-16T06:49:08.020Z,14.20
2017-10-16T06:51:35.647Z,14.30
2017-10-16T06:54:03.320Z,14.30
2017-10-16T06:56:30.941Z,14.40
2017-10-16T06:58:59.368Z,14.40
2017-10-16T07:01:27.060Z,14.40
2017-10-16T07:03:54.686Z,14.50
2017-10-16T07:06:22.315Z,14.50
2017-10-16T07:08:49.895Z,14.60
2017-10-16T07:11:17.525Z,14.60
2017-10-16T07:13:45.924Z,14.70
2017-10-16T07:16:14.283Z,14.80
2017-10-16T07:18:41.893Z,14.80
2017-10-16T07:21:09.787Z,15.00
2017-10-16T07:23:38.571Z,15.20
2017-10-16T07:26:06.206Z,15.20
2017-10-16T07:28:33.890Z,15.30
2017-10-16T07:31:01.559Z,15.50
2017-10-16T07:33:29.428Z,15.60
2017-10-16T07:35:57.044Z,15.80
2017-10-16T07:38:24.770Z,15.90
2017-10-16T07:40:53.210Z,16.10
2017-10-16T07:43:20.824Z,16.10
2017-10-16T07:45:49.267Z,16.20
2017-10-16T07:48:17.698Z,16.40
2017-10-16T07:50:46.125Z,16.50
2017-10-16T07:53:13.762Z,16.50
2017-10-16T07:55:42.048Z,16.60
2017-10-16T07:58:09.882Z,16.70
2017-10-16T08:00:37.565Z,16.80
2017-10-16T08:03:05.230Z,17.00
2017-10-16T08:05:32.950Z,17.10
2017-10-16T08:08:00.588Z,17.20
2017-10-16T08:10:28.253Z,17.30
2017-10-16T08:12:56.005Z,17.40
2017-10-16T08:15:23.700Z,17.40
2017-10-16T08:17:51.424Z,17.50
2017-10-16T08:20:19.081Z,17.50
2017-10-16T08:22:47.909Z,17.60
2017-10-16T08:25:15.522Z,17.60
2017-10-16T08:27:43.208Z,17.70
2017-10-16T08:30:11.862Z,17.80
2017-10-16T08:32:39.497Z,17.80
2017-10-16T08:35:07.993Z,18.00
2017-10-16T08:37:35.771Z,18.00
2017-10-16T08:40:03.478Z,18.10
2017-10-16T08:42:31.202Z,18.20
2017-10-16T08:44:58.855Z,18.30
2017-10-16T08:47:26.568Z,18.30
2017-10-16T08:49:54.242Z,18.40
2017-10-16T08:52:21.917Z,18.40
2017-10-16T08:54:49.553Z,18.50
2017-10-16T08:57:17.233Z,18.50
2017-10-16T08:59:44.897Z,18.60
2017-10-16T09:02:12.738Z,18.70
2017-10-16T09:04:40.432Z,18.70
2017-10-16T09:07:08.836Z,18.80
2017-10-16T09:09:36.541Z,18.80
2017-10-16T09:12:04.167Z,18.80
2017-10-16T09:14:31.794Z,18.90
2017-10-16T09:16:59.563Z,19.10
2017-10-16T09:19:28.114Z,19.20
2017-10-16T09:21:55.816Z,19.20
2017-10-16T09:24:24.197Z,19.50
2017-10-16T09:26:52.042Z,19.50
2017-10-16T09:29:20.428Z,19.60
2017-10-16T09:31:48.180Z,19.60
2017-10-16T09:34:16.001Z,19.70
2017-10-16T09:36:43.675Z,19.80
2017-10-16T09:39:11.344Z,19.80
2017-10-16T09:41:38.950Z,19.90
2017-10-16T09:44:07.362Z,20.10
2017-10-16T09:46:35.113Z,20.10
2017-10-16T09:49:02.753Z,20.10
2017-10-16T09:51:30.433Z,20.20
2017-10-16T09:53:58.071Z,20.30
2017-10-16T09:56:26.428Z,20.30
2017-10-16T09:58:54.040Z,20.30
2017-10-16T10:01:22.223Z,20.50
2017-10-16T10:03:49.924Z,20.50
2017-10-16T10:06:17.566Z,20.60
2017-10-16T10:08:45.171Z,20.70
2017-10-16T10:11:13.559Z,20.90
2017-10-16T10:13:42.344Z,21.00
2017-10-16T10:16:10.794Z,21.10
2017-10-16T10:18:38.376Z,21.10
2017-10-16T10:21:05.970Z,21.10
2017-10-16T10:23:33.602Z,21.20
2017-10-16T10:26:02.253Z,21.40
2017-10-16T10:28:30.681Z,21.50
2017-10-16T10:30:58.458Z,21.40
2017-10-16T10:33:26.907Z,21.60
2017-10-16T10:35:54.591Z,21.60
2017-10-16T10:38:22.219Z,21.70
2017-10-16T10:40:49.946Z,21.70
2017-10-16T10:43:17.683Z,21.80
2017-10-16T10:45:46.316Z,21.90
2017-10-16T10:48:14.020Z,21.80
2017-10-16T10:50:42.432Z,22.10
2017-10-16T10:53:10.043Z,22.10
2017-10-16T10:55:37.711Z,22.20
2017-10-16T10:58:05.438Z,22.20
2017-10-16T11:00:33.352Z,22.30
2017-10-16T11:03:01.136Z,22.40
2017-10-16T11:05:28.796Z,22.40
2017-10-16T11:07:56.389Z,22.40
2017-10-16T11:10:24.120Z,22.40
2017-10-16T11:12:51.751Z,22.40
2017-10-16T11:15:21.064Z,22.40
2017-10-16T11:17:48.733Z,22.50
2017-10-16T11:20:16.364Z,22.60
2017-10-16T11:22:44.897Z,22.70
2017-10-16T11:25:12.489Z,22.70
2017-10-16T11:27:40.115Z,22.80
2017-10-16T11:30:07.774Z,22.80
2017-10-16T11:32:36.183Z,22.90
2017-10-16T11:35:03.839Z,22.90
2017-10-16T11:37:31.448Z,23.00
2017-10-16T11:39:59.108Z,23.10
2017-10-16T11:42:26.759Z,23.30
2017-10-16T11:44:54.439Z,23.40
2017-10-16T11:47:22.060Z,23.50
2017-10-16T11:49:49.744Z,23.60
2017-10-16T11:52:17.778Z,23.70
2017-10-16T11:54:46.358Z,23.70
2017-10-16T11:57:14.587Z,23.80
2017-10-16T11:59:42.763Z,23.90
2017-10-16T12:02:10.455Z,23.90
2017-10-16T12:04:39.260Z,24.00
2017-10-16T12:07:07.145Z,24.00
2017-10-16T12:09:37.397Z,24.10
2017-10-16T12:12:06.395Z,24.30
2017-10-16T12:14:34.959Z,24.20
2017-10-16T12:17:07.724Z,24.30
2017-10-16T12:19:36.542Z,24.40
2017-10-16T12:22:04.946Z,24.40
2017-10-16T12:24:33.209Z,24.50
2017-10-16T12:27:01.527Z,24.60
2017-10-16T12:29:30.024Z,24.60
2017-10-16T12:31:58.234Z,24.60
2017-10-16T12:34:26.764Z,24.70
2017-10-16T12:36:54.928Z,24.70
2017-10-16T12:39:22.998Z,24.80
2017-10-16T12:41:51.271Z,24.70
2017-10-16T12:44:19.720Z,24.80
2017-10-16T12:46:48.795Z,24.90
2017-10-16T12:49:16.871Z,24.90
2017-10-16T12:51:45.225Z,24.90
2017-10-16T12:54:16.330Z,25.00
2017-10-16T12:56:44.702Z,25.00
2017-10-16T12:59:12.981Z,25.00
2017-10-16T13:01:41.306Z,24.90
2017-10-16T13:04:09.518Z,24.90
2017-10-16T13:06:37.708Z,24.90
2017-10-16T13:09:05.437Z,24.90
2017-10-16T13:11:33.648Z,24.90
2017-10-16T13:14:01.771Z,24.90
2017-10-16T13:16:29.844Z,24.90
2017-10-16T13:18:58.629Z,25.00
2017-10-16T13:21:26.644Z,25.00
2017-10-16T13:23:55.409Z,25.10
2017-10-16T13:26:23.970Z,25.10
2017-10-16T13:28:51.935Z,25.10
2017-10-16T13:31:20.587Z,25.10
2017-10-16T13:33:48.649Z,25.10
2017-10-16T13:36:16.766Z,25.10
2017-10-16T13:38:44.738Z,25.10
2017-10-16T13:41:12.953Z,25.10
2017-10-16T13:43:40.974Z,25.00
2017-10-16T13:46:09.172Z,25.10
2017-10-16T13:48:37.135Z,25.10
2017-10-16T13:51:05.797Z,25.20
2017-10-16T13:53:33.572Z,25.20
2017-10-16T13:56:01.678Z,25.20
2017-10-16T13:58:29.715Z,25.30
2017-10-16T14:00:58.210Z,25.10
2017-10-16T14:03:27.022Z,25.20
2017-10-16T14:05:54.786Z,25.20
2017-10-16T14:08:22.690Z,25.20
2017-10-16T14:10:50.694Z,25.20
2017-10-16T14:13:18.483Z,25.20
2017-10-16T14:15:46.225Z,25.20
2017-10-16T14:18:14.053Z,25.20
2017-10-16T14:20:41.831Z,25.20
2017-10-16T14:23:09.882Z,25.10
2017-10-16T14:25:38.361Z,25.20
2017-10-16T14:28:06.258Z,25.20
2017-10-16T14:30:34.156Z,25.20
2017-10-16T14:33:01.766Z,25.20
2017-10-16T14:35:29.440Z,25.20
2017-10-16T14:37:57.092Z,25.20
2017-10-16T14:40:25.137Z,25.20
2017-10-16T14:42:52.880Z,25.20
2017-10-16T14:45:20.529Z,25.10
2017-10-16T14:47:48.130Z,25.10
2017-10-16T14:50:15.870Z,25.00
2017-10-16T14:52:43.551Z,25.00
2017-10-16T14:55:11.140Z,25.00
2017-10-16T14:57:38.769Z,24.90
2017-10-16T15:00:06.439Z,24.90
2017-10-16T15:02:34.078Z,24.90
2017-10-16T15:05:02.961Z,24.80
2017-10-16T15:07:30.902Z,24.70
2017-10-16T15:09:58.717Z,24.80
2017-10-16T15:12:26.347Z,24.70
2017-10-16T15:14:54.031Z,24.70
2017-10-16T15:17:22.601Z,24.60
2017-10-16T15:19:51.151Z,24.60
2017-10-16T15:22:18.961Z,24.60
2017-10-16T15:24:46.597Z,24.50
2017-10-16T15:27:14.230Z,24.50
2017-10-16T15:29:41.906Z,24.40
2017-10-16T15:32:09.658Z,24.40
2017-10-16T15:34:37.241Z,24.30
2017-10-16T15:37:04.913Z,24.20
2017-10-16T15:39:32.564Z,24.20
2017-10-16T15:42:00.183Z,24.00
2017-10-16T15:44:28.540Z,23.90
2017-10-16T15:46:56.243Z,23.80
2017-10-16T15:49:23.868Z,23.80
2017-10-16T15:51:51.484Z,23.70
2017-10-16T15:54:19.986Z,23.60
2017-10-16T15:56:47.640Z,23.50
2017-10-16T15:59:15.275Z,23.40
2017-10-16T16:01:42.951Z,23.40
2017-10-16T16:04:10.573Z,23.30
2017-10-16T16:06:38.244Z,23.20
2017-10-16T16:09:06.596Z,23.00
2017-10-16T16:11:35.080Z,23.00
2017-10-16T16:14:02.768Z,22.90
2017-10-16T16:16:31.137Z,22.90
2017-10-16T16:18:59.559Z,22.80
2017-10-16T16:21:27.401Z,22.80
2017-10-16T16:23:54.989Z,22.70
2017-10-16T16:26:22.657Z,22.60
2017-10-16T16:28:50.362Z,22.60
2017-10-16T16:31:17.994Z,22.50
2017-10-16T16:33:45.659Z,22.40
2017-10-16T16:36:13.331Z,22.30
2017-10-16T16:38:40.990Z,22.20
2017-10-16T16:41:08.669Z,22.10
2017-10-16T16:43:37.045Z,21.90
2017-10-16T16:46:05.301Z,21.90
2017-10-16T16:48:32.895Z,21.80
2017-10-16T16:51:00.569Z,21.70
2017-10-16T16:53:28.231Z,21.70
2017-10-16T16:55:56.600Z,21.50
2017-10-16T16:58:25.063Z,21.40
2017-10-16T17:00:52.651Z,21.40
2017-10-16T17:03:20.320Z,21.30
2017-10-16T17:05:47.937Z,21.30
2017-10-16T17:08:15.629Z,21.20
2017-10-16T17:10:43.982Z,21.10
2017-10-16T17:13:11.715Z,21.00
2017-10-16T17:15:39.338Z,21.00
2017-10-16T17:18:06.971Z,21.00
2017-10-16T17:20:34.737Z,20.90
2017-10-16T17:23:03.024Z,20.90
2017-10-16T17:25:31.407Z,20.70
2017-10-16T17:27:59.764Z,20.70
2017-10-16T17:30:27.388Z,20.60
2017-10-16T17:32:54.981Z,20.60
2017-10-16T17:35:22.591Z,20.50
2017-10-16T17:37:50.187Z,20.40
2017-10-16T17:40:17.895Z,20.30
2017-10-16T17:42:45.509Z,20.20
2017-10-16T17:45:13.116Z,20.20
2017-10-16T17:47:41.492Z,20.10
2017-10-16T17:50:09.838Z,20.00
2017-10-16T17:52:37.442Z,20.00
2017-10-16T17:55:05.787Z,19.90
2017-10-16T17:57:33.447Z,19.80
2017-10-16T18:00:01.015Z,19.80
2017-10-16T18:02:28.638Z,19.80
2017-10-16T18:04:56.256Z,19.80
2017-10-16T18:07:24.652Z,19.90
2017-10-16T18:09:52.344Z,19.80
2017-10-16T18:12:19.960Z,19.80
2017-10-16T18:14:48.324Z,19.80
2017-10-16T18:17:15.935Z,19.80
2017-10-16T18:19:43.553Z,19.80
2017-10-16T18:22:11.967Z,19.80
2017-10-16T18:24:39.595Z,19.80
2017-10-16T18:27:08.063Z,19.60
2017-10-16T18:29:35.723Z,19.60
2017-10-16T18:32:04.149Z,19.50
2017-10-16T18:34:31.858Z,19.50
2017-10-16T18:36:59.451Z,19.50
2017-10-16T18:39:27.834Z,19.50
2017-10-16T18:41:55.461Z,19.40
2017-10-16T18:44:23.067Z,19.50
2017-10-16T18:46:50.685Z,19.50
2017-10-16T18:49:18.257Z,19.40
2017-10-16T18:51:46.649Z,19.30
2017-10-16T18:54:14.279Z,19.30
2017-10-16T18:56:41.971Z,19.30
2017-10-16T18:59:10.312Z,19.20
2017-10-16T19:01:37.913Z,19.20
2017-10-16T19:04:05.533Z,19.20
2017-10-16T19:06:35.954Z,19.20
2017-10-16T19:09:03.642Z,19.10
2017-10-16T19:11:31.264Z,19.00
2017-10-16T19:13:58.888Z,18.90
2017-10-16T19:16:26.478Z,18.90
2017-10-16T19:18:54.132Z,18.90
2017-10-16T19:21:21.751Z,18.90
2017-10-16T19:23:50.178Z,18.90
2017-10-16T19:26:17.910Z,18.80
2017-10-16T19:28:45.513Z,18.80
2017-10-16T19:31:13.164Z,18.80
2017-10-16T19:33:40.822Z,18.80
2017-10-16T19:36:08.452Z,18.80
2017-10-16T19:38:37.799Z,18.70
2017-10-16T19:41:05.536Z,18.70
2017-10-16T19:43:33.189Z,18.70
2017-10-16T19:46:00.880Z,18.60
2017-10-16T19:48:28.554Z,18.60
2017-10-16T19:50:56.201Z,18.50
2017-10-16T19:53:23.820Z,18.50
2017-10-16T19:55:52.345Z,18.50
2017-10-16T19:58:19.962Z,18.40
2017-10-16T20:00:48.308Z,18.40
2017-10-16T20:03:15.942Z,18.40
2017-10-16T20:05:43.589Z,18.30
2017-10-16T20:08:11.201Z,18.30
2017-10-16T20:10:38.886Z,18.20
2017-10-16T20:13:07.290Z,18.10
2017-10-16T20:15:35.903Z,18.10
2017-10-16T20:18:03.483Z,18.10
2017-10-16T20:20:31.098Z,18.10
2017-10-16T20:22:58.713Z,18.10
2017-10-16T20:25:26.397Z,18.00
2017-10-16T20:27:54.780Z,17.90
2017-10-16T20:30:23.170Z,17.90
2017-10-16T20:32:50.797Z,17.80
2017-10-16T20:35:18.439Z,17.90
2017-10-16T20:37:46.035Z,17.80
2017-10-16T20:40:14.402Z,17.70
2017-10-16T20:42:42.006Z,17.70
2017-10-16T20:45:09.608Z,17.70
2017-10-16T20:47:37.201Z,17.70
2017-10-16T20:50:05.580Z,17.60
2017-10-16T20:52:33.961Z,17.50
2017-10-16T20:55:02.338Z,17.50
2017-10-16T20:57:30.707Z,17.40
2017-10-16T20:59:59.101Z,17.40
2017-10-16T21:02:26.736Z,17.30
2017-10-16T21:04:54.651Z,17.30
2017-10-16T21:07:22.238Z,17.20
2017-10-16T21:09:49.890Z,17.20
2017-10-16T21:12:17.514Z,17.20
2017-10-16T21:14:45.933Z,17.10
2017-10-16T21:17:13.555Z,17.10
2017-10-16T21:19:41.218Z,17.00
2017-10-16T21:22:09.558Z,16.90
2017-10-16T21:24:37.264Z,16.90
2017-10-16T21:27:04.925Z,16.90
2017-10-16T21:29:32.546Z,16.90
2017-10-16T21:32:00.208Z,16.80
2017-10-16T21:34:27.802Z,16.70
2017-10-16T21:36:56.233Z,16.60
2017-10-16T21:39:23.822Z,16.60
2017-10-16T21:41:51.426Z,16.60
2017-10-16T21:44:19.006Z,16.60
2017-10-16T21:46:46.703Z,16.50
2017-10-16T21:49:14.334Z,16.50
2017-10-16T21:51:41.988Z,16.50
2017-10-16T21:54:09.611Z,16.60
2017-10-16T21:56:38.082Z,16.60
2017-10-16T21:59:06.500Z,16.60
2017-10-16T22:01:34.082Z,16.50
2017-10-16T22:04:01.720Z,16.50
2017-10-16T22:06:29.354Z,16.50
2017-10-16T22:08:57.802Z,16.50
2017-10-16T22:11:25.407Z,16.40
2017-10-16T22:13:52.994Z,16.40
2017-10-16T22:16:20.600Z,16.40
2017-10-16T22:18:48.211Z,16.30
2017-10-16T22:21:15.872Z,16.30
2017-10-16T22:23:43.474Z,16.30
2017-10-16T22:26:11.138Z,16.30
2017-10-16T22:28:38.760Z,16.20
2017-10-16T22:31:06.382Z,16.20
2017-10-16T22:33:34.046Z,16.20
2017-10-16T22:36:01.692Z,16.10
2017-10-16T22:38:30.088Z,16.00
2017-10-16T22:40:57.680Z,16.00
2017-10-16T22:43:25.351Z,15.90
2017-10-16T22:45:52.920Z,15.90
2017-10-16T22:48:20.572Z,15.80
2017-10-16T22:50:51.609Z,15.80
2017-10-16T22:53:19.196Z,15.80
2017-10-16T22:55:46.804Z,15.80
2017-10-16T22:58:14.414Z,15.80
2017-10-16T23:00:42.035Z,15.80
2017-10-16T23:03:09.658Z,15.80
2017-10-16T23:05:38.060Z,15.90
2017-10-16T23:08:05.693Z,15.80
2017-10-16T23:10:33.310Z,15.90
2017-10-16T23:13:00.911Z,16.00
2017-10-16T23:15:29.481Z,16.00
2017-10-16T23:17:57.081Z,16.00
2017-10-16T23:20:24.697Z,16.00
2017-10-16T23:22:52.365Z,16.00
2017-10-16T23:25:20.003Z,16.00
2017-10-16T23:27:47.679Z,16.00
2017-10-16T23:30:15.291Z,16.00
2017-10-16T23:32:42.919Z,16.00
2017-10-16T23:35:10.538Z,16.00
2017-10-16T23:37:38.208Z,16.10
2017-10-16T23:40:05.823Z,16.00
2017-10-16T23:42:34.226Z,16.10
2017-10-16T23:45:02.759Z,16.10
2017-10-16T23:47:30.382Z,16.10
2017-10-16T23:49:58.004Z,16.10
2017-10-16T23:52:26.413Z,16.00
2017-10-16T23:54:54.049Z,16.00
2017-10-16T23:57:22.402Z,16.00
2017-10-16T23:59:50.084Z,15.90
